Time,TemperatureF,DewpointF,PressureIn,WindDirection,WindDirectionDegrees,WindSpeedMPH,WindSpeedGustMPH,Humidity,HourlyPrecipIn,Conditions,Clouds,dailyrainin,SoftwareType,DateUTC
2013-06-12 00:01:00,74.1,74.1,29.89,SW,224,3.7,10.3,100,0.00,,BKN300,0.00,VWS V14.01,2013-06-12 04:01:00,
2013-06-12 00:02:00,74.1,74.1,29.89,SW,225,0.0,6.6,100,0.00,,BKN300,0.00,VWS V14.01,2013-06-12 04:02:00,
2013-06-12 00:03:00,74.1,74.1,29.89,SW,229,0.0,0.0,100,0.00,,BKN300,0.00,VWS V14.01,2013-06-12 04:03:00,
2013-06-12 00:08:00,74.1,74.1,29.89,SW,222,0.0,5.6,100,0.00,,BKN300,0.00,VWS V14.01,2013-06-12 04:08:00,
2013-06-12 00:13:00,74.1,74.1,29.89,SW,220,5.9,9.4,100,0.00,,BKN300,0.00,VWS V14.01,2013-06-12 04:13:00,
2013-06-12 00:18:00,73.9,73.9,29.89,SSW,203,5.2,9.4,100,0.00,,BKN300,0.00,VWS V14.01,2013-06-12 04:18:00,
2013-06-12 00:24:00,73.9,73.9,29.89,SW,220,0.0,5.6,100,0.00,,BKN300,0.00,VWS V14.01,2013-06-12 04:24:00,
2013-06-12 00:29:00,73.8,73.8,29.89,SSW,205,0.0,0.0,100,0.00,,BKN300,0.00,VWS V14.01,2013-06-12 04:29:00,
2013-06-12 00:34:00,73.6,73.6,29.89,SW,228,4.4,8.5,100,0.00,,BKN300,0.00,VWS V14.01,2013-06-12 04:34:00,
2013-06-12 00:39:00,73.6,73.6,29.89,SW,233,4.4,5.6,100,0.00,,BKN300,0.00,VWS V14.01,2013-06-12 04:39:00,
2013-06-12 00:44:00,73.4,73.4,29.89,SW,225,3.7,5.6,100,0.00,,BKN300,0.00,VWS V14.01,2013-06-12 04:44:00,
2013-06-12 00:50:00,73.4,73.4,29.89,South,186,5.2,6.6,100,0.00,,BKN300,0.00,VWS V14.01,2013-06-12 04:50:00,
2013-06-12 00:55:00,73.4,73.4,29.89,SW,227,0.0,5.6,100,0.00,,BKN300,0.00,VWS V14.01,2013-06-12 04:55:00,
2013-06-12 01:00:00,73.6,73.6,29.89,West,264,0.0,6.6,100,0.00,,BKN300,0.00,VWS V14.01,2013-06-12 05:00:00,
2013-06-12 01:05:00,73.6,73.6,29.89,SSW,204,0.0,0.0,100,0.00,,BKN300,0.00,VWS V14.01,2013-06-12 05:05:00,
2013-06-12 01:10:00,73.6,73.6,29.89,SSW,211,3.7,4.7,100,0.00,,BKN300,0.00,VWS V14.01,2013-06-12 05:10:00,
2013-06-12 01:15:00,73.6,73.6,29.89,South,188,3.7,4.7,100,0.00,,BKN300,0.00,VWS V14.01,2013-06-12 05:15:00,
2013-06-12 01:21:00,73.4,73.4,29.89,SSW,192,4.4,7.5,100,0.00,,BKN300,0.00,VWS V14.01,2013-06-12 05:21:00,
2013-06-12 01:26:00,73.4,73.4,29.89,SSW,196,5.2,7.5,100,0.00,,BKN300,0.00,VWS V14.01,2013-06-12 05:26:00,
2013-06-12 01:31:00,73.4,73.4,29.89,South,184,3.7,4.7,100,0.00,,BKN300,0.00,VWS V14.01,2013-06-12 05:31:00,
2013-06-12 01:36:00,73.4,73.4,29.89,West,273,0.0,0.0,100,0.00,,BKN300,0.00,VWS V14.01,2013-06-12 05:36:00,
2013-06-12 01:41:00,73.4,73.4,29.89,SW,217,4.4,5.6,100,0.00,,BKN300,0.00,VWS V14.01,2013-06-12 05:41:00,
2013-06-12 01:46:00,73.4,73.4,29.89,SW,234,4.4,5.6,100,0.00,,BKN300,0.00,VWS V14.01,2013-06-12 05:46:00,
2013-06-12 01:52:00,73.4,73.4,29.89,South,185,0.0,5.6,100,0.00,,BKN300,0.00,VWS V14.01,2013-06-12 05:52:00,
2013-06-12 01:57:00,73.4,73.4,29.89,SSW,204,0.0,8.5,100,0.00,,BKN300,0.00,VWS V14.01,2013-06-12 05:57:00,
2013-06-12 02:02:00,73.4,73.4,29.89,SSW,204,0.0,0.0,100,0.00,,BKN300,0.00,VWS V14.01,2013-06-12 06:02:00,
2013-06-12 02:07:00,73.4,73.4,29.89,SSW,204,0.0,0.0,100,0.00,,BKN300,0.00,VWS V14.01,2013-06-12 06:07:00,
2013-06-12 02:12:00,73.2,73.2,29.89,SSW,204,0.0,0.0,100,0.00,,BKN300,0.00,VWS V14.01,2013-06-12 06:12:00,
2013-06-12 02:17:00,73.2,73.2,29.89,SSW,204,0.0,0.0,100,0.00,,BKN300,0.00,VWS V14.01,2013-06-12 06:17:00,
2013-06-12 02:23:00,73.0,73.1,29.89,SSW,204,0.0,0.0,100,0.00,,BKN300,0.00,VWS V14.01,2013-06-12 06:23:00,
2013-06-12 02:28:00,73.0,73.1,29.89,SSW,213,5.2,6.6,100,0.00,,BKN300,0.00,VWS V14.01,2013-06-12 06:28:00,
2013-06-12 02:33:00,73.0,73.1,29.89,SW,214,0.0,4.7,100,0.00,,BKN300,0.00,VWS V14.01,2013-06-12 06:33:00,
2013-06-12 02:38:00,72.9,72.9,29.89,SW,214,0.0,0.0,100,0.00,,BKN300,0.00,VWS V14.01,2013-06-12 06:38:00,
2013-06-12 02:43:00,72.9,72.9,29.89,SSW,213,0.0,0.0,100,0.00,,BKN300,0.00,VWS V14.01,2013-06-12 06:43:00,
2013-06-12 02:49:00,72.9,72.9,29.89,SSW,213,0.0,0.0,100,0.00,,BKN300,0.00,VWS V14.01,2013-06-12 06:49:00,
2013-06-12 02:54:00,72.7,72.7,29.89,SSW,213,0.0,0.0,100,0.00,,BKN300,0.00,VWS V14.01,2013-06-12 06:54:00,
2013-06-12 02:59:00,72.5,72.5,29.89,SSW,213,0.0,0.0,100,0.00,,BKN300,0.00,VWS V14.01,2013-06-12 06:59:00,
2013-06-12 03:04:00,72.5,72.5,29.89,SSW,213,0.0,0.0,100,0.00,,BKN300,0.00,VWS V14.01,2013-06-12 07:04:00,
2013-06-12 03:10:00,72.3,72.3,29.89,SSW,213,0.0,0.0,100,0.00,,BKN300,0.00,VWS V14.01,2013-06-12 07:10:00,
2013-06-12 03:15:00,72.3,72.3,29.89,SSW,213,0.0,0.0,100,0.00,,BKN300,0.00,VWS V14.01,2013-06-12 07:15:00,
2013-06-12 03:20:00,72.1,72.2,29.89,SSW,213,0.0,0.0,100,0.00,,BKN300,0.00,VWS V14.01,2013-06-12 07:20:00,
2013-06-12 03:25:00,72.0,72.0,29.89,SSW,213,0.0,0.0,100,0.00,,BKN300,0.00,VWS V14.01,2013-06-12 07:25:00,
2013-06-12 03:30:00,72.0,72.0,29.89,SSW,213,0.0,0.0,100,0.00,,BKN300,0.00,VWS V14.01,2013-06-12 07:30:00,
2013-06-12 03:35:00,72.0,72.0,29.89,SSW,211,0.0,0.0,100,0.00,,BKN300,0.00,VWS V14.01,2013-06-12 07:35:00,
2013-06-12 03:40:00,72.1,72.2,29.86,SSW,213,0.0,0.0,100,0.00,,BKN300,0.00,VWS V14.01,2013-06-12 07:40:00,
2013-06-12 03:45:00,72.1,72.2,29.86,SSW,205,0.0,0.0,100,0.00,,BKN300,0.00,VWS V14.01,2013-06-12 07:45:00,
2013-06-12 03:50:00,72.3,72.3,29.86,SSW,205,0.0,0.0,100,0.00,,BKN300,0.00,VWS V14.01,2013-06-12 07:50:00,
2013-06-12 03:55:00,72.5,72.5,29.89,South,174,0.0,0.0,100,0.00,,BKN300,0.00,VWS V14.01,2013-06-12 07:55:00,
2013-06-12 04:00:00,72.9,72.9,29.89,South,175,3.7,4.7,100,0.00,,BKN300,0.00,VWS V14.01,2013-06-12 08:00:00,
2013-06-12 04:06:00,73.0,73.1,29.89,South,189,5.2,6.6,100,0.00,,BKN300,0.00,VWS V14.01,2013-06-12 08:06:00,
2013-06-12 04:11:00,73.4,73.4,29.89,SSW,201,0.0,0.0,100,0.00,,BKN300,0.00,VWS V14.01,2013-06-12 08:11:00,
2013-06-12 04:16:00,73.6,73.6,29.89,WSW,244,5.2,6.6,100,0.00,,BKN300,0.00,VWS V14.01,2013-06-12 08:16:00,
2013-06-12 04:21:00,74.3,74.3,29.89,WSW,244,0.0,4.7,100,0.00,,BKN300,0.00,VWS V14.01,2013-06-12 08:21:00,
2013-06-12 04:26:00,74.7,74.7,29.89,WSW,244,0.0,0.0,100,0.00,,BKN300,0.00,VWS V14.01,2013-06-12 08:26:00,
2013-06-12 04:31:00,75.0,75.0,29.89,West,279,0.0,0.0,100,0.00,,BKN300,0.00,VWS V14.01,2013-06-12 08:31:00,
2013-06-12 04:36:00,75.6,75.6,29.89,South,173,4.4,12.2,100,0.00,,SCT300,0.00,VWS V14.01,2013-06-12 08:36:00,
2013-06-12 04:42:00,75.9,75.9,29.89,NNW,341,5.9,8.5,100,0.00,,SCT300,0.00,VWS V14.01,2013-06-12 08:42:00,
2013-06-12 04:47:00,76.3,76.3,29.89,SW,226,0.0,0.0,100,0.00,,SCT300,0.00,VWS V14.01,2013-06-12 08:47:00,
2013-06-12 04:52:00,76.5,76.5,29.89,SE,144,0.0,0.0,100,0.00,,SCT300,0.00,VWS V14.01,2013-06-12 08:52:00,
2013-06-12 04:57:00,76.6,76.7,29.89,WNW,288,0.0,0.0,100,0.00,,SCT300,0.00,VWS V14.01,2013-06-12 08:57:00,
2013-06-12 05:02:00,76.6,76.7,29.89,SSW,195,0.0,0.0,100,0.00,,SCT300,0.00,VWS V14.01,2013-06-12 09:02:00,
2013-06-12 05:07:00,77.0,77.0,29.89,NW,315,0.0,0.0,100,0.00,,SCT300,0.00,VWS V14.01,2013-06-12 09:07:00,
2013-06-12 05:12:00,77.0,77.0,29.89,NNW,346,8.9,11.3,100,0.00,,SCT300,0.00,VWS V14.01,2013-06-12 09:12:00,
2013-06-12 05:17:00,77.0,77.0,29.89,SSE,163,0.0,0.0,100,0.00,,SCT300,0.00,VWS V14.01,2013-06-12 09:17:00,
2013-06-12 05:23:00,76.8,76.8,29.89,SSE,163,0.0,0.0,100,0.00,,SCT300,0.00,VWS V14.01,2013-06-12 09:23:00,
2013-06-12 05:28:00,76.8,76.8,29.89,South,189,4.4,8.5,100,0.00,,SCT300,0.00,VWS V14.01,2013-06-12 09:28:00,
2013-06-12 05:33:00,76.8,76.8,29.89,South,190,0.0,0.0,100,0.00,,SCT300,0.00,VWS V14.01,2013-06-12 09:33:00,
2013-06-12 05:38:00,76.8,76.8,29.89,WSW,249,0.0,0.0,100,0.00,,SCT300,0.00,VWS V14.01,2013-06-12 09:38:00,
2013-06-12 05:43:00,76.6,76.7,29.92,WSW,249,0.0,0.0,100,0.00,,SCT300,0.00,VWS V14.01,2013-06-12 09:43:00,
2013-06-12 05:49:00,76.5,76.5,29.92,WSW,246,0.0,6.6,100,0.00,,SCT300,0.00,VWS V14.01,2013-06-12 09:49:00,
2013-06-12 05:54:00,76.3,76.3,29.92,WSW,258,0.0,0.0,100,0.00,,SCT300,0.00,VWS V14.01,2013-06-12 09:54:00,
2013-06-12 05:59:00,76.1,76.1,29.92,WSW,251,0.0,0.0,100,0.00,,BKN300,0.00,VWS V14.01,2013-06-12 09:59:00,
2013-06-12 06:04:00,75.9,75.9,29.92,WSW,248,3.7,4.7,100,0.00,,BKN300,0.00,VWS V14.01,2013-06-12 10:04:00,
2013-06-12 06:09:00,75.7,75.8,29.92,SSE,154,4.4,5.6,100,0.00,,BKN300,0.00,VWS V14.01,2013-06-12 10:09:00,
2013-06-12 06:15:00,75.7,75.8,29.92,WSW,253,5.2,6.6,100,0.00,,BKN300,0.00,VWS V14.01,2013-06-12 10:15:00,
2013-06-12 06:20:00,75.9,75.9,29.92,WSW,238,0.0,5.6,100,0.00,,BKN300,0.00,VWS V14.01,2013-06-12 10:20:00,
2013-06-12 06:25:00,75.9,75.9,29.92,SW,217,3.7,5.6,100,0.00,,BKN300,0.00,VWS V14.01,2013-06-12 10:25:00,
2013-06-12 06:30:00,75.9,75.9,29.92,SW,218,0.0,0.0,100,0.00,,BKN300,0.00,VWS V14.01,2013-06-12 10:30:00,
2013-06-12 06:35:00,76.3,76.3,29.92,NNW,331,0.0,8.5,100,0.00,,BKN300,0.00,VWS V14.01,2013-06-12 10:35:00,
2013-06-12 06:40:00,76.8,76.8,29.92,SSE,157,0.0,0.0,100,0.00,,BKN300,0.00,VWS V14.01,2013-06-12 10:40:00,
2013-06-12 06:45:00,77.4,77.4,29.92,NW,320,0.0,0.0,100,0.00,,BKN300,0.00,VWS V14.01,2013-06-12 10:45:00,
2013-06-12 06:50:00,77.4,77.4,29.92,West,278,0.0,4.7,100,0.00,,BKN300,0.00,VWS V14.01,2013-06-12 10:50:00,
2013-06-12 06:56:00,77.7,77.7,29.92,SW,222,0.0,7.5,100,0.00,,BKN300,0.00,VWS V14.01,2013-06-12 10:56:00,
2013-06-12 07:01:00,78.3,78.3,29.92,SW,218,0.0,5.6,100,0.00,,BKN300,0.00,VWS V14.01,2013-06-12 11:01:00,
2013-06-12 07:06:00,78.6,78.6,29.92,SW,218,0.0,0.0,100,0.00,,BKN300,0.00,VWS V14.01,2013-06-12 11:06:00,
2013-06-12 07:11:00,79.0,79.0,29.92,WSW,239,4.4,8.5,100,0.00,,BKN300,0.00,VWS V14.01,2013-06-12 11:11:00,
2013-06-12 07:16:00,79.3,79.3,29.92,South,189,0.0,0.0,100,0.00,,BKN300,0.00,VWS V14.01,2013-06-12 11:16:00,
2013-06-12 07:22:00,79.3,79.3,29.92,NW,323,0.0,6.6,100,0.00,,BKN300,0.00,VWS V14.01,2013-06-12 11:22:00,
2013-06-12 07:27:00,79.3,79.3,29.92,WSW,237,0.0,6.6,100,0.00,,BKN300,0.00,VWS V14.01,2013-06-12 11:27:00,
2013-06-12 07:32:00,79.2,79.2,29.92,SSW,204,6.6,10.3,100,0.00,,BKN300,0.00,VWS V14.01,2013-06-12 11:32:00,
2013-06-12 07:37:00,79.2,79.2,29.92,South,185,0.0,0.0,100,0.00,,BKN300,0.00,VWS V14.01,2013-06-12 11:37:00,
2013-06-12 07:42:00,79.2,79.2,29.95,WSW,252,3.7,4.7,100,0.00,,BKN300,0.00,VWS V14.01,2013-06-12 11:42:00,
2013-06-12 07:47:00,79.5,79.5,29.95,SSW,211,0.0,10.3,100,0.00,,BKN300,0.00,VWS V14.01,2013-06-12 11:47:00,
2013-06-12 07:53:00,79.5,79.5,29.95,SW,234,0.0,0.0,100,0.00,,BKN300,0.00,VWS V14.01,2013-06-12 11:53:00,
2013-06-12 07:58:00,79.5,79.5,29.95,WSW,247,0.0,0.0,100,0.00,,BKN300,0.00,VWS V14.01,2013-06-12 11:58:00,
2013-06-12 08:03:00,79.3,79.3,29.95,SW,233,0.0,0.0,100,0.00,,BKN300,0.00,VWS V14.01,2013-06-12 12:03:00,
2013-06-12 08:08:00,79.2,79.2,29.95,WSW,238,0.0,0.0,100,0.00,,BKN300,0.00,VWS V14.01,2013-06-12 12:08:00,
2013-06-12 08:13:00,79.2,79.2,29.95,SW,219,5.2,6.6,100,0.00,,BKN300,0.00,VWS V14.01,2013-06-12 12:13:00,
2013-06-12 08:19:00,79.0,79.0,29.95,WSW,241,5.2,8.5,100,0.00,,BKN300,0.00,VWS V14.01,2013-06-12 12:19:00,
2013-06-12 08:24:00,78.8,78.8,29.95,WSW,241,11.1,14.1,100,0.00,,BKN300,0.00,VWS V14.01,2013-06-12 12:24:00,
2013-06-12 08:29:00,78.8,78.8,29.95,SSW,204,0.0,5.6,100,0.00,,BKN300,0.00,VWS V14.01,2013-06-12 12:29:00,
2013-06-12 08:34:00,79.0,79.0,29.95,SSW,201,0.0,0.0,100,0.00,,BKN300,0.00,VWS V14.01,2013-06-12 12:34:00,
2013-06-12 08:39:00,79.0,79.0,29.95,SSW,202,0.0,0.0,100,0.00,,SCT210,0.00,VWS V14.01,2013-06-12 12:39:00,
2013-06-12 08:44:00,79.2,79.2,29.95,SW,223,6.6,9.4,100,0.00,,SCT210,0.00,VWS V14.01,2013-06-12 12:44:00,
2013-06-12 08:50:00,79.3,79.3,29.95,SW,225,0.0,7.5,100,0.00,,SCT210,0.00,VWS V14.01,2013-06-12 12:50:00,
2013-06-12 08:55:00,79.9,79.9,29.95,SE,124,4.4,5.6,100,0.00,,SCT210,0.00,VWS V14.01,2013-06-12 12:55:00,
2013-06-12 09:00:00,80.1,80.1,29.95,SW,226,0.0,6.6,100,0.00,,SCT210,0.00,VWS V14.01,2013-06-12 13:00:00,
2013-06-12 09:05:00,80.2,80.2,29.95,SW,223,4.4,8.5,100,0.00,,SCT210,0.00,VWS V14.01,2013-06-12 13:05:00,
2013-06-12 09:10:00,80.4,80.4,29.95,WSW,248,0.0,5.6,100,0.00,,SCT210,0.00,VWS V14.01,2013-06-12 13:10:00,
2013-06-12 09:15:00,80.8,80.3,29.95,WSW,243,4.4,6.6,99,0.00,,SCT210,0.00,VWS V14.01,2013-06-12 13:15:00,
2013-06-12 09:21:00,81.0,79.5,29.95,SW,214,0.0,5.6,95,0.00,,SCT210,0.00,VWS V14.01,2013-06-12 13:21:00,
2013-06-12 09:26:00,81.0,80.0,29.95,South,172,4.4,7.5,97,0.00,,SCT210,0.00,VWS V14.01,2013-06-12 13:26:00,
2013-06-12 09:31:00,81.3,79.8,29.95,SW,227,0.0,0.0,95,0.00,,SCT210,0.00,VWS V14.01,2013-06-12 13:31:00,
2013-06-12 09:36:00,81.7,79.6,29.95,ESE,115,5.2,6.6,94,0.00,,BKN180,0.00,VWS V14.01,2013-06-12 13:36:00,
2013-06-12 09:41:00,81.5,78.9,29.95,SSE,148,3.7,5.6,92,0.00,,BKN180,0.00,VWS V14.01,2013-06-12 13:41:00,
2013-06-12 09:46:00,81.3,79.3,29.95,SSW,210,5.9,11.3,94,0.00,,BKN180,0.00,VWS V14.01,2013-06-12 13:46:00,
2013-06-12 09:52:00,81.1,79.1,29.95,WSW,248,6.6,8.5,94,0.00,,BKN180,0.00,VWS V14.01,2013-06-12 13:52:00,
2013-06-12 09:57:00,81.1,79.6,29.95,SW,217,5.2,6.6,95,0.00,,BKN180,0.00,VWS V14.01,2013-06-12 13:57:00,
2013-06-12 10:02:00,81.1,79.6,29.95,WNW,286,5.9,7.5,95,0.00,,BKN180,0.00,VWS V14.01,2013-06-12 14:02:00,
2013-06-12 10:07:00,81.1,79.6,29.95,West,271,0.0,7.5,95,0.00,,BKN180,0.00,VWS V14.01,2013-06-12 14:07:00,
2013-06-12 10:12:00,81.3,79.3,29.95,WSW,253,4.4,6.6,94,0.00,,BKN180,0.00,VWS V14.01,2013-06-12 14:12:00,
2013-06-12 10:18:00,81.3,79.8,29.95,WSW,242,8.1,10.3,95,0.00,,BKN180,0.00,VWS V14.01,2013-06-12 14:18:00,
2013-06-12 10:23:00,81.5,79.4,29.95,SW,229,5.2,6.6,94,0.00,,BKN180,0.00,VWS V14.01,2013-06-12 14:23:00,
2013-06-12 10:28:00,81.5,80.0,29.95,SSW,202,5.2,6.6,95,0.00,,BKN180,0.00,VWS V14.01,2013-06-12 14:28:00,
2013-06-12 10:33:00,81.3,79.8,29.95,SSW,209,4.4,7.5,95,0.00,,BKN180,0.00,VWS V14.01,2013-06-12 14:33:00,
2013-06-12 10:38:00,81.3,80.4,29.95,SSW,207,0.0,0.0,97,0.00,,BKN190,0.00,VWS V14.01,2013-06-12 14:38:00,
2013-06-12 10:43:00,81.5,80.5,29.95,WNW,293,4.4,7.5,97,0.00,,BKN190,0.00,VWS V14.01,2013-06-12 14:43:00,
2013-06-12 10:49:00,81.7,80.2,29.95,West,266,3.7,5.6,95,0.00,,BKN190,0.00,VWS V14.01,2013-06-12 14:49:00,
2013-06-12 10:54:00,81.7,80.7,29.95,West,280,5.2,8.5,97,0.00,,BKN190,0.00,VWS V14.01,2013-06-12 14:54:00,
2013-06-12 10:59:00,82.0,80.5,29.95,South,191,5.2,8.5,95,0.00,,BKN190,0.00,VWS V14.01,2013-06-12 14:59:00,
2013-06-12 11:04:00,82.4,80.3,29.95,SSE,151,5.2,8.5,94,0.00,,BKN190,0.00,VWS V14.01,2013-06-12 15:04:00,
2013-06-12 11:09:00,82.8,81.2,29.95,WNW,291,6.6,8.5,95,0.00,,BKN190,0.00,VWS V14.01,2013-06-12 15:09:00,
2013-06-12 11:14:00,83.7,80.4,29.95,WSW,248,5.2,11.3,90,0.00,,BKN190,0.00,VWS V14.01,2013-06-12 15:14:00,
2013-06-12 11:19:00,84.6,80.2,29.95,WNW,294,0.0,0.0,87,0.00,,BKN190,0.00,VWS V14.01,2013-06-12 15:19:00,
2013-06-12 11:25:00,85.3,79.6,29.95,SW,214,5.2,7.5,83,0.00,,BKN190,0.00,VWS V14.01,2013-06-12 15:25:00,
2013-06-12 11:30:00,85.5,79.2,29.95,SSW,193,0.0,5.6,82,0.00,,BKN190,0.00,VWS V14.01,2013-06-12 15:30:00,
2013-06-12 11:35:00,85.8,79.5,29.95,SSW,213,0.0,6.6,82,0.00,,BKN190,0.00,VWS V14.01,2013-06-12 15:35:00,
2013-06-12 11:40:00,86.5,78.9,29.95,NW,304,5.2,6.6,78,0.00,,BKN190,0.00,VWS V14.01,2013-06-12 15:40:00,
2013-06-12 11:45:00,87.1,76.0,29.95,NW,315,5.9,12.2,70,0.00,,BKN190,0.00,VWS V14.01,2013-06-12 15:45:00,
2013-06-12 11:51:00,87.3,76.9,29.95,SSW,212,4.4,7.5,71,0.00,,BKN190,0.00,VWS V14.01,2013-06-12 15:51:00,
2013-06-12 11:56:00,87.4,77.1,29.95,West,273,5.9,10.3,71,0.00,,BKN190,0.00,VWS V14.01,2013-06-12 15:56:00,
2013-06-12 12:01:00,87.8,78.1,29.95,West,272,5.2,7.5,73,0.00,,BKN190,0.00,VWS V14.01,2013-06-12 16:01:00,
2013-06-12 12:06:00,88.5,77.4,29.95,WNW,296,5.9,7.5,70,0.00,,BKN190,0.00,VWS V14.01,2013-06-12 16:06:00,
2013-06-12 12:11:00,88.3,76.4,29.95,WSW,238,4.4,5.6,68,0.00,,BKN190,0.00,VWS V14.01,2013-06-12 16:11:00,
2013-06-12 12:17:00,88.2,77.0,29.95,WSW,247,5.2,8.5,70,0.00,,BKN190,0.00,VWS V14.01,2013-06-12 16:17:00,
2013-06-12 12:22:00,88.0,77.6,29.95,WNW,303,6.6,11.3,71,0.00,,BKN190,0.00,VWS V14.01,2013-06-12 16:22:00,
2013-06-12 12:27:00,89.1,77.9,29.95,WNW,284,0.0,10.3,70,0.00,,BKN190,0.00,VWS V14.01,2013-06-12 16:27:00,
2013-06-12 12:32:00,90.1,76.6,29.95,WNW,289,0.0,8.5,65,0.00,,BKN190,0.00,VWS V14.01,2013-06-12 16:32:00,
2013-06-12 12:37:00,89.8,77.1,29.95,ENE,62,5.9,7.5,66,0.00,,BKN180,0.00,VWS V14.01,2013-06-12 16:37:00,
2013-06-12 12:42:00,89.8,76.3,29.95,SSW,205,6.6,10.3,65,0.00,,BKN180,0.00,VWS V14.01,2013-06-12 16:42:00,
2013-06-12 12:47:00,90.5,77.7,29.95,SW,228,13.3,16.9,66,0.00,,BKN180,0.00,VWS V14.01,2013-06-12 16:47:00,
2013-06-12 12:53:00,90.7,76.3,29.95,WNW,303,4.4,8.5,63,0.00,,BKN180,0.00,VWS V14.01,2013-06-12 16:53:00,
2013-06-12 12:58:00,90.1,76.6,29.92,WNW,285,6.6,13.2,65,0.00,,BKN180,0.00,VWS V14.01,2013-06-12 16:58:00,
2013-06-12 13:03:00,90.3,76.8,29.92,SW,226,5.2,12.2,65,0.00,,BKN180,0.00,VWS V14.01,2013-06-12 17:03:00,
2013-06-12 13:08:00,91.0,76.7,29.92,West,262,4.4,11.3,63,0.00,,BKN180,0.00,VWS V14.01,2013-06-12 17:08:00,
2013-06-12 13:13:00,91.8,75.7,29.92,NNW,337,9.6,12.2,60,0.00,,BKN180,0.00,VWS V14.01,2013-06-12 17:13:00,
2013-06-12 13:18:00,91.6,76.3,29.92,WSW,248,5.2,6.6,61,0.00,,BKN180,0.00,VWS V14.01,2013-06-12 17:18:00,
2013-06-12 13:24:00,91.0,77.5,29.92,South,189,8.9,17.4,65,0.00,,BKN180,0.00,VWS V14.01,2013-06-12 17:24:00,
2013-06-12 13:29:00,90.9,76.5,29.92,WNW,293,4.4,7.5,63,0.00,,BKN180,0.00,VWS V14.01,2013-06-12 17:29:00,
2013-06-12 13:34:00,91.0,77.5,29.92,WSW,256,4.4,7.5,65,0.00,,BKN180,0.00,VWS V14.01,2013-06-12 17:34:00,
2013-06-12 13:39:00,90.9,77.3,29.92,SSW,192,4.4,6.6,65,0.00,,BKN200,0.00,VWS V14.01,2013-06-12 17:39:00,
2013-06-12 13:44:00,91.0,79.0,29.92,SSW,207,8.1,10.3,68,0.00,,BKN200,0.00,VWS V14.01,2013-06-12 17:44:00,
2013-06-12 13:49:00,91.4,77.0,29.92,West,270,0.0,8.5,63,0.00,,BKN200,0.00,VWS V14.01,2013-06-12 17:49:00,
2013-06-12 13:55:00,91.8,78.9,29.89,North,4,0.0,0.0,66,0.00,,BKN200,0.00,VWS V14.01,2013-06-12 17:55:00,
2013-06-12 14:00:00,91.9,78.3,29.89,SW,233,5.9,11.3,65,0.00,,BKN200,0.00,VWS V14.01,2013-06-12 18:00:00,
2013-06-12 14:05:00,91.8,75.7,29.89,South,181,0.0,7.5,60,0.00,,BKN200,0.00,VWS V14.01,2013-06-12 18:05:00,
2013-06-12 14:10:00,91.6,78.0,29.89,WSW,243,6.6,8.5,65,0.00,,BKN200,0.00,VWS V14.01,2013-06-12 18:10:00,
2013-06-12 14:15:00,91.4,77.0,29.89,SSW,206,5.2,12.2,63,0.00,,BKN200,0.00,VWS V14.01,2013-06-12 18:15:00,
2013-06-12 14:21:00,90.9,76.5,29.89,WSW,241,4.4,23.0,63,0.00,,BKN200,0.00,VWS V14.01,2013-06-12 18:21:00,
2013-06-12 14:26:00,90.7,77.1,29.89,SSW,199,8.9,11.3,65,0.00,,BKN200,0.00,VWS V14.01,2013-06-12 18:26:00,
2013-06-12 14:31:00,90.7,77.1,29.89,SW,231,5.9,12.2,65,0.00,,BKN200,0.00,VWS V14.01,2013-06-12 18:31:00,
2013-06-12 14:36:00,90.9,76.5,29.89,SSE,156,6.6,16.0,63,0.00,,BKN250,0.00,VWS V14.01,2013-06-12 18:36:00,
2013-06-12 14:42:00,91.2,77.6,29.86,SW,224,8.9,11.3,65,0.00,,BKN250,0.00,VWS V14.01,2013-06-12 18:42:00,
2013-06-12 14:47:00,91.2,77.6,29.86,SSW,213,5.9,11.3,65,0.00,,BKN250,0.00,VWS V14.01,2013-06-12 18:47:00,
2013-06-12 14:52:00,91.2,76.8,29.86,South,186,8.9,18.3,63,0.00,,BKN250,0.00,VWS V14.01,2013-06-12 18:52:00,
2013-06-12 14:57:00,91.4,77.0,29.86,SE,140,5.2,6.6,63,0.00,,BKN250,0.00,VWS V14.01,2013-06-12 18:57:00,
2013-06-12 15:02:00,91.8,76.5,29.86,WSW,237,6.6,8.5,61,0.00,,BKN250,0.00,VWS V14.01,2013-06-12 19:02:00,
2013-06-12 15:07:00,92.3,76.2,29.86,South,169,5.9,10.3,60,0.00,,BKN250,0.00,VWS V14.01,2013-06-12 19:07:00,
2013-06-12 15:13:00,92.5,78.8,29.86,South,171,5.2,18.3,65,0.00,,BKN250,0.00,VWS V14.01,2013-06-12 19:13:00,
2013-06-12 15:18:00,92.8,75.8,29.86,WSW,251,10.3,21.1,58,0.00,,BKN250,0.00,VWS V14.01,2013-06-12 19:18:00,
2013-06-12 15:23:00,92.5,74.6,29.86,South,173,9.6,25.8,56,0.00,,BKN250,0.00,VWS V14.01,2013-06-12 19:23:00,
2013-06-12 15:28:00,92.3,74.4,29.86,South,190,6.6,12.2,56,0.00,,BKN250,0.00,VWS V14.01,2013-06-12 19:28:00,
2013-06-12 15:33:00,92.1,75.1,29.86,SW,216,5.2,12.2,58,0.00,,BKN250,0.00,VWS V14.01,2013-06-12 19:33:00,
2013-06-12 15:38:00,91.9,75.0,29.86,SW,227,0.0,11.3,58,0.00,,OVC200,0.00,VWS V14.01,2013-06-12 19:38:00,
2013-06-12 15:43:00,92.3,73.5,29.86,West,267,5.9,13.2,54,0.00,,OVC200,0.00,VWS V14.01,2013-06-12 19:43:00,
2013-06-12 15:49:00,92.8,72.1,29.86,WSW,242,5.9,18.3,51,0.00,,OVC200,0.00,VWS V14.01,2013-06-12 19:49:00,
2013-06-12 15:54:00,93.0,73.2,29.83,West,281,8.9,15.0,53,0.00,,OVC200,0.00,VWS V14.01,2013-06-12 19:54:00,
2013-06-12 15:59:00,92.5,72.7,29.83,SW,221,6.6,11.3,53,0.00,,OVC200,0.00,VWS V14.01,2013-06-12 19:59:00,
2013-06-12 16:04:00,91.8,73.9,29.83,SSW,209,6.6,16.9,56,0.00,,OVC200,0.00,VWS V14.01,2013-06-12 20:04:00,
2013-06-12 16:09:00,91.4,75.3,29.83,WSW,241,14.4,18.3,60,0.00,,OVC200,0.00,VWS V14.01,2013-06-12 20:09:00,
2013-06-12 16:14:00,91.0,74.1,29.83,South,186,8.9,11.3,58,0.00,,OVC200,0.00,VWS V14.01,2013-06-12 20:14:00,
2013-06-12 16:19:00,91.0,75.0,29.83,SW,220,9.6,12.2,60,0.00,,OVC200,0.00,VWS V14.01,2013-06-12 20:19:00,
2013-06-12 16:24:00,91.2,75.2,29.83,SSW,206,14.4,26.8,60,0.00,,OVC200,0.00,VWS V14.01,2013-06-12 20:24:00,
2013-06-12 16:29:00,91.0,74.1,29.83,West,259,8.1,10.3,58,0.00,,OVC200,0.00,VWS V14.01,2013-06-12 20:29:00,
2013-06-12 16:35:00,90.5,73.6,29.83,SSW,196,13.3,17.4,58,0.00,,OVC200,0.00,VWS V14.01,2013-06-12 20:35:00,
2013-06-12 16:40:00,90.3,75.2,29.80,SSW,199,13.7,22.1,61,0.00,,BKN220,0.00,VWS V14.01,2013-06-12 20:40:00,
2013-06-12 16:45:00,90.5,74.5,29.80,South,173,13.7,20.2,60,0.00,,BKN220,0.00,VWS V14.01,2013-06-12 20:45:00,
2013-06-12 16:50:00,90.5,76.9,29.80,South,178,6.6,16.0,65,0.00,,BKN220,0.00,VWS V14.01,2013-06-12 20:50:00,
2013-06-12 16:55:00,90.7,75.5,29.80,SSE,161,21.0,26.8,61,0.00,,BKN220,0.00,VWS V14.01,2013-06-12 20:55:00,
2013-06-12 17:00:00,90.5,74.5,29.80,South,186,9.6,21.1,60,0.00,,BKN220,0.00,VWS V14.01,2013-06-12 21:00:00,
2013-06-12 17:05:00,90.3,74.3,29.80,SE,143,10.3,13.2,60,0.00,,BKN220,0.00,VWS V14.01,2013-06-12 21:05:00,
2013-06-12 17:11:00,90.7,73.8,29.80,South,191,13.7,31.5,58,0.00,,BKN220,0.00,VWS V14.01,2013-06-12 21:11:00,
2013-06-12 17:16:00,91.0,72.3,29.80,South,178,10.3,22.1,54,0.00,,BKN220,0.00,VWS V14.01,2013-06-12 21:16:00,
2013-06-12 17:21:00,90.9,73.9,29.80,SSE,158,6.6,15.0,58,0.00,,BKN220,0.00,VWS V14.01,2013-06-12 21:21:00,
2013-06-12 17:26:00,90.9,73.9,29.80,SE,143,5.9,7.5,58,0.00,,BKN220,0.00,VWS V14.01,2013-06-12 21:26:00,
2013-06-12 17:31:00,91.0,72.3,29.80,SE,140,13.7,17.4,54,0.00,,BKN220,0.00,VWS V14.01,2013-06-12 21:31:00,
2013-06-12 17:36:00,91.2,73.4,29.80,SSW,208,21.8,27.7,56,0.00,,BKN220,0.00,VWS V14.01,2013-06-12 21:36:00,
2013-06-12 17:42:00,91.2,72.5,29.80,South,189,13.3,16.9,54,0.00,,BKN220,0.00,VWS V14.01,2013-06-12 21:42:00,
2013-06-12 17:47:00,91.2,72.5,29.80,SW,224,13.7,17.4,54,0.00,,BKN220,0.00,VWS V14.01,2013-06-12 21:47:00,
2013-06-12 17:52:00,91.0,72.3,29.80,South,189,11.8,15.0,54,0.00,,BKN220,0.00,VWS V14.01,2013-06-12 21:52:00,
2013-06-12 17:57:00,91.4,70.7,29.80,SSE,147,21.0,26.8,51,0.00,,BKN220,0.00,VWS V14.01,2013-06-12 21:57:00,
2013-06-12 18:03:00,91.4,71.7,29.80,South,183,9.6,12.2,53,0.00,,BKN220,0.00,VWS V14.01,2013-06-12 22:03:00,
2013-06-12 18:08:00,91.6,70.9,29.80,SW,222,13.7,17.4,51,0.00,,BKN220,0.00,VWS V14.01,2013-06-12 22:08:00,
2013-06-12 18:13:00,91.9,71.2,29.80,SSE,154,14.4,18.3,51,0.00,,BKN220,0.00,VWS V14.01,2013-06-12 22:13:00,
2013-06-12 18:18:00,91.8,71.1,29.80,South,174,4.4,12.2,51,0.00,,BKN220,0.00,VWS V14.01,2013-06-12 22:18:00,
2013-06-12 18:23:00,91.8,72.0,29.80,SW,236,8.1,10.3,53,0.00,,BKN220,0.00,VWS V14.01,2013-06-12 22:23:00,
2013-06-12 18:28:00,91.4,72.7,29.80,SSW,209,6.6,12.2,54,0.00,,BKN220,0.00,VWS V14.01,2013-06-12 22:28:00,
2013-06-12 18:33:00,91.0,72.3,29.80,South,182,8.9,11.3,54,0.00,,BKN220,0.00,VWS V14.01,2013-06-12 22:33:00,
2013-06-12 18:38:00,90.9,73.1,29.80,SW,236,10.3,21.1,56,0.00,,BKN220,0.00,VWS V14.01,2013-06-12 22:38:00,
2013-06-12 18:44:00,90.5,73.6,29.80,West,265,13.3,23.0,58,0.00,,BKN220,0.00,VWS V14.01,2013-06-12 22:44:00,
2013-06-12 18:49:00,90.1,73.3,29.80,South,178,5.9,7.5,58,0.00,,BKN220,0.00,VWS V14.01,2013-06-12 22:49:00,
2013-06-12 18:54:00,90.5,73.6,29.80,SW,217,5.9,16.9,58,0.00,,BKN220,0.00,VWS V14.01,2013-06-12 22:54:00,
2013-06-12 18:59:00,90.5,73.6,29.80,South,183,6.6,16.9,58,0.00,,BKN220,0.00,VWS V14.01,2013-06-12 22:59:00,
2013-06-12 19:04:00,90.1,73.3,29.80,SW,219,4.4,11.3,58,0.00,,BKN220,0.00,VWS V14.01,2013-06-12 23:04:00,
2013-06-12 19:09:00,90.0,73.1,29.80,WSW,243,9.6,12.2,58,0.00,,BKN220,0.00,VWS V14.01,2013-06-12 23:09:00,
2013-06-12 19:14:00,89.6,73.6,29.80,SSE,153,14.4,18.3,60,0.00,,BKN220,0.00,VWS V14.01,2013-06-12 23:14:00,
2013-06-12 19:19:00,89.1,74.8,29.80,SSW,209,9.6,12.2,63,0.00,,BKN220,0.00,VWS V14.01,2013-06-12 23:19:00,
2013-06-12 19:25:00,88.9,74.6,29.78,SSW,205,10.3,18.3,63,0.00,,BKN220,0.00,VWS V14.01,2013-06-12 23:25:00,
2013-06-12 19:30:00,88.5,75.1,29.78,West,267,14.4,18.3,65,0.00,,BKN220,0.00,VWS V14.01,2013-06-12 23:30:00,
2013-06-12 19:35:00,88.5,75.1,29.78,SSW,199,13.3,16.9,65,0.00,,BKN220,0.00,VWS V14.01,2013-06-12 23:35:00,
2013-06-12 19:40:00,88.2,74.7,29.78,SW,236,8.9,11.3,65,0.00,,SCT220,0.00,VWS V14.01,2013-06-12 23:40:00,
2013-06-12 19:45:00,88.2,75.5,29.78,SSE,167,8.1,10.3,66,0.00,,SCT220,0.00,VWS V14.01,2013-06-12 23:45:00,
2013-06-12 19:50:00,88.2,75.5,29.78,SSW,213,10.3,18.3,66,0.00,,SCT220,0.00,VWS V14.01,2013-06-12 23:50:00,
2013-06-12 19:55:00,87.8,75.2,29.78,WSW,238,4.4,17.4,66,0.00,,SCT220,0.00,VWS V14.01,2013-06-12 23:55:00,
2013-06-12 20:01:00,87.6,75.8,29.78,South,184,3.7,13.2,68,0.00,,SCT220,0.00,VWS V14.01,2013-06-13 00:01:00,
2013-06-12 20:06:00,87.3,76.2,29.78,SSW,195,12.5,16.0,70,0.00,,SCT220,0.00,VWS V14.01,2013-06-13 00:06:00,
2013-06-12 20:11:00,87.1,75.2,29.78,SSW,197,9.6,12.2,68,0.00,,SCT220,0.00,VWS V14.01,2013-06-13 00:11:00,
2013-06-12 20:16:00,87.1,76.0,29.78,SSW,202,9.6,13.2,70,0.00,,BKN220,0.00,VWS V14.01,2013-06-13 00:16:00,
2013-06-12 20:21:00,86.9,75.8,29.78,SW,221,10.3,13.2,70,0.00,,BKN220,0.00,VWS V14.01,2013-06-13 00:21:00,
2013-06-12 20:27:00,86.7,75.6,29.78,WSW,241,6.6,16.0,70,0.00,,BKN220,0.00,VWS V14.01,2013-06-13 00:27:00,
2013-06-12 20:32:00,86.5,75.5,29.78,WSW,242,12.5,16.0,70,0.00,,BKN220,0.00,VWS V14.01,2013-06-13 00:32:00,
2013-06-12 20:37:00,86.4,74.6,29.78,SSW,195,6.6,8.5,68,0.00,,BKN220,0.00,VWS V14.01,2013-06-13 00:37:00,
2013-06-12 20:42:00,86.4,75.3,29.78,South,180,5.9,8.5,70,0.00,,BKN220,0.00,VWS V14.01,2013-06-13 00:42:00,
2013-06-12 20:47:00,86.2,75.1,29.78,SW,217,5.9,8.5,70,0.00,,BKN220,0.00,VWS V14.01,2013-06-13 00:47:00,
2013-06-12 20:53:00,86.0,74.9,29.78,West,259,6.6,8.5,70,0.00,,BKN220,0.00,VWS V14.01,2013-06-13 00:53:00,
2013-06-12 20:58:00,85.6,75.3,29.78,SSW,198,4.4,11.3,71,0.00,,BKN220,0.00,VWS V14.01,2013-06-13 00:58:00,
2013-06-12 21:03:00,85.5,75.2,29.78,South,179,5.2,6.6,71,0.00,,BKN220,0.00,VWS V14.01,2013-06-13 01:03:00,
2013-06-12 21:08:00,85.1,74.8,29.78,SSW,199,4.4,5.6,71,0.00,,BKN220,0.00,VWS V14.01,2013-06-13 01:08:00,
2013-06-12 21:13:00,84.9,75.3,29.78,WSW,241,5.2,10.3,73,0.00,,BKN220,0.00,VWS V14.01,2013-06-13 01:13:00,
2013-06-12 21:19:00,84.7,75.2,29.78,WSW,248,5.2,6.6,73,0.00,,BKN220,0.00,VWS V14.01,2013-06-13 01:19:00,
2013-06-12 21:24:00,84.6,75.0,29.78,SSW,209,8.9,18.3,73,0.00,,BKN220,0.00,VWS V14.01,2013-06-13 01:24:00,
2013-06-12 21:29:00,84.4,74.8,29.78,SSW,209,10.3,13.2,73,0.00,,BKN220,0.00,VWS V14.01,2013-06-13 01:29:00,
2013-06-12 21:34:00,84.4,75.5,29.78,SSW,203,5.9,7.5,75,0.00,,BKN220,0.00,VWS V14.01,2013-06-13 01:34:00,
2013-06-12 21:40:00,84.2,75.3,29.78,SSW,202,5.2,11.3,75,0.00,,BKN220,0.00,VWS V14.01,2013-06-13 01:40:00,
2013-06-12 21:45:00,84.0,75.2,29.78,South,178,8.1,10.3,75,0.00,,BKN220,0.00,VWS V14.01,2013-06-13 01:45:00,
2013-06-12 21:50:00,83.8,75.0,29.78,SSW,204,5.2,6.6,75,0.00,,BKN220,0.00,VWS V14.01,2013-06-13 01:50:00,
2013-06-12 21:55:00,83.5,74.7,29.75,South,187,5.2,6.6,75,0.00,,BKN220,0.00,VWS V14.01,2013-06-13 01:55:00,
2013-06-12 22:00:00,83.3,75.2,29.75,South,172,3.7,8.5,76,0.00,,BKN220,0.00,VWS V14.01,2013-06-13 02:00:00,
2013-06-12 22:05:00,83.1,75.6,29.75,SSE,164,8.9,11.3,78,0.00,,BKN220,0.00,VWS V14.01,2013-06-13 02:05:00,
2013-06-12 22:11:00,82.8,75.3,29.75,South,190,3.7,8.5,78,0.00,,BKN220,0.00,VWS V14.01,2013-06-13 02:11:00,
2013-06-12 22:16:00,82.8,75.3,29.75,SSE,167,5.9,10.3,78,0.00,,BKN220,0.00,VWS V14.01,2013-06-13 02:16:00,
2013-06-12 22:21:00,82.6,75.8,29.75,SSW,210,5.2,13.2,80,0.00,,BKN220,0.00,VWS V14.01,2013-06-13 02:21:00,
2013-06-12 22:26:00,82.6,75.8,29.75,South,183,4.4,8.5,80,0.00,,BKN220,0.00,VWS V14.01,2013-06-13 02:26:00,
2013-06-12 22:31:00,82.4,75.6,29.75,SSW,200,4.4,5.6,80,0.00,,BKN220,0.00,VWS V14.01,2013-06-13 02:31:00,
2013-06-12 22:36:00,82.2,76.0,29.75,SSW,194,5.2,7.5,82,0.00,,BKN220,0.00,VWS V14.01,2013-06-13 02:36:00,
2013-06-12 22:41:00,82.2,76.7,29.75,SSW,201,8.1,11.3,83,0.00,,BKN220,0.00,VWS V14.01,2013-06-13 02:41:00,
2013-06-12 22:47:00,82.0,76.5,29.75,South,184,6.6,8.5,83,0.00,,BKN220,0.00,VWS V14.01,2013-06-13 02:47:00,
2013-06-12 22:52:00,81.9,76.9,29.75,WSW,257,8.9,11.3,85,0.00,,BKN220,0.00,VWS V14.01,2013-06-13 02:52:00,
2013-06-12 22:57:00,81.9,76.9,29.75,West,262,5.9,7.5,85,0.00,,BKN220,0.00,VWS V14.01,2013-06-13 02:57:00,
2013-06-12 23:02:00,82.0,77.7,29.75,South,184,5.2,6.6,87,0.00,,BKN220,0.00,VWS V14.01,2013-06-13 03:02:00,
2013-06-12 23:07:00,82.0,77.1,29.75,SSE,159,9.6,12.2,85,0.00,,BKN220,0.00,VWS V14.01,2013-06-13 03:07:00,
2013-06-12 23:13:00,82.2,77.3,29.78,South,178,3.7,6.6,85,0.00,,BKN220,0.00,VWS V14.01,2013-06-13 03:13:00,
2013-06-12 23:18:00,82.2,77.3,29.78,South,183,3.7,8.5,85,0.00,,BKN220,0.00,VWS V14.01,2013-06-13 03:18:00,
2013-06-12 23:23:00,82.2,77.3,29.78,South,172,0.0,7.5,85,0.00,,BKN220,0.00,VWS V14.01,2013-06-13 03:23:00,
2013-06-12 23:28:00,82.4,76.8,29.78,SW,227,5.9,8.5,83,0.00,,BKN220,0.00,VWS V14.01,2013-06-13 03:28:00,
2013-06-12 23:33:00,82.6,76.4,29.78,SW,227,5.2,7.5,82,0.00,,BKN220,0.00,VWS V14.01,2013-06-13 03:33:00,
2013-06-12 23:38:00,82.8,76.6,29.78,South,190,8.9,13.2,82,0.00,,OVC250,0.00,VWS V14.01,2013-06-13 03:38:00,
2013-06-12 23:43:00,82.6,76.4,29.78,SW,226,3.7,13.2,82,0.00,,OVC250,0.00,VWS V14.01,2013-06-13 03:43:00,
2013-06-12 23:48:00,82.6,76.4,29.78,SSE,156,5.9,12.2,82,0.00,,OVC250,0.00,VWS V14.01,2013-06-13 03:48:00,
2013-06-12 23:54:00,82.6,76.4,29.78,SW,224,8.9,12.2,82,0.00,,OVC250,0.00,VWS V14.01,2013-06-13 03:54:00,
2013-06-12 23:59:00,82.6,76.4,29.78,SW,233,5.9,7.5,82,0.00,,OVC250,0.00,VWS V14.01,2013-06-13 03:59:00,